sensor_id;sensor_type;location;lat;lon;timestamp;P1;durP1;ratioP1;P2;durP2;ratioP2
71821;SDS011;64096;52.548;13.406;2023-10-13T06:02:58;10.45;;;7.68;;
71821;SDS011;64096;52.548;13.406;2023-10-13T06:05:43;10.57;;;7.80;;
71821;SDS011;64096;52.548;13.406;2023-10-13T06:08:28;9.70;;;7.85;;
71821;SDS011;64096;52.548;13.406;2023-10-13T06:11:12;9.00;;;7.55;;
71821;SDS011;64096;52.548;13.406;2023-10-13T06:13:57;11.00;;;8.77;;
71821;SDS011;64096;52.548;13.406;2023-10-13T06:16:41;12.38;;;9.05;;
71821;SDS011;64096;52.548;13.406;2023-10-13T06:19:26;9.85;;;8.20;;
71821;SDS011;64096;52.548;13.406;2023-10-13T06:22:10;9.48;;;8.07;;
71821;SDS011;64096;52.548;13.406;2023-10-13T06:24:55;9.90;;;8.05;;
71821;SDS011;64096;52.548;13.406;2023-10-13T06:27:53;10.95;;;7.55;;
71821;SDS011;64096;52.548;13.406;2023-10-13T06:30:38;9.73;;;7.00;;
71821;SDS011;64096;52.548;13.406;2023-10-13T06:33:05;9.00;;;6.80;;
71821;SDS011;64096;52.548;13.406;2023-10-13T06:35:31;8.07;;;6.97;;
71821;SDS011;64096;52.548;13.406;2023-10-13T06:37:59;9.32;;;7.18;;
71821;SDS011;64096;52.548;13.406;2023-10-13T06:40:25;9.30;;;6.85;;
71821;SDS011;64096;52.548;13.406;2023-10-13T06:42:54;9.32;;;7.25;;
71821;SDS011;64096;52.548;13.406;2023-10-13T06:45:36;7.95;;;6.00;;
71821;SDS011;64096;52.548;13.406;2023-10-13T06:48:04;9.95;;;7.32;;
71821;SDS011;64096;52.548;13.406;2023-10-13T06:50:30;8.98;;;7.15;;
71821;SDS011;64096;52.548;13.406;2023-10-13T06:53:04;9.82;;;7.90;;
71821;SDS011;64096;52.548;13.406;2023-10-13T06:55:30;11.07;;;6.75;;
71821;SDS011;64096;52.548;13.406;2023-10-13T06:58:05;9.15;;;7.90;;
71821;SDS011;64096;52.548;13.406;2023-10-13T07:00:32;10.55;;;8.63;;
71821;SDS011;64096;52.548;13.406;2023-10-13T07:03:06;9.52;;;7.85;;
71821;SDS011;64096;52.548;13.406;2023-10-13T07:05:37;10.70;;;8.43;;
71821;SDS011;64096;52.548;13.406;2023-10-13T07:08:04;9.68;;;6.70;;
71821;SDS011;64096;52.548;13.406;2023-10-13T07:10:30;8.95;;;7.18;;
71821;SDS011;64096;52.548;13.406;2023-10-13T07:13:00;7.43;;;6.30;;
71821;SDS011;64096;52.548;13.406;2023-10-13T07:15:26;10.32;;;7.57;;
71821;SDS011;64096;52.548;13.406;2023-10-13T07:17:52;8.55;;;6.45;;
71821;SDS011;64096;52.548;13.406;2023-10-13T07:20:24;9.35;;;6.72;;
71821;SDS011;64096;52.548;13.406;2023-10-13T07:22:54;8.30;;;6.10;;
71821;SDS011;64096;52.548;13.406;2023-10-13T07:25:22;7.68;;;5.72;;
71821;SDS011;64096;52.548;13.406;2023-10-13T07:27:51;8.57;;;6.63;;
71821;SDS011;64096;52.548;13.406;2023-10-13T07:30:19;7.45;;;5.97;;
71821;SDS011;64096;52.548;13.406;2023-10-13T07:32:51;8.32;;;5.97;;
71821;SDS011;64096;52.548;13.406;2023-10-13T07:35:18;8.20;;;5.90;;
71821;SDS011;64096;52.548;13.406;2023-10-13T07:37:45;7.30;;;5.78;;
71821;SDS011;64096;52.548;13.406;2023-10-13T07:40:17;9.00;;;6.30;;
71821;SDS011;64096;52.548;13.406;2023-10-13T07:42:52;9.13;;;6.15;;
71821;SDS011;64096;52.548;13.406;2023-10-13T07:45:26;9.02;;;5.85;;
71821;SDS011;64096;52.548;13.406;2023-10-13T07:48:01;8.27;;;5.80;;
71821;SDS011;64096;52.548;13.406;2023-10-13T07:50:32;10.50;;;8.40;;
71821;SDS011;64096;52.548;13.406;2023-10-13T07:52:59;7.80;;;5.93;;
71821;SDS011;64096;52.548;13.406;2023-10-13T07:55:39;8.48;;;6.70;;
71821;SDS011;64096;52.548;13.406;2023-10-13T07:58:05;7.43;;;5.15;;
71821;SDS011;64096;52.548;13.406;2023-10-13T08:00:33;8.18;;;5.80;;
71821;SDS011;64096;52.548;13.406;2023-10-13T08:03:01;7.60;;;5.25;;
71821;SDS011;64096;52.548;13.406;2023-10-13T08:05:40;7.28;;;5.22;;
71821;SDS011;64096;52.548;13.406;2023-10-13T08:08:25;7.25;;;4.80;;
71821;SDS011;64096;52.548;13.406;2023-10-13T08:10:57;6.45;;;4.28;;
71821;SDS011;64096;52.548;13.406;2023-10-13T08:13:33;5.82;;;4.45;;
71821;SDS011;64096;52.548;13.406;2023-10-13T08:16:01;7.18;;;4.40;;
71821;SDS011;64096;52.548;13.406;2023-10-13T08:18:46;6.32;;;4.60;;
71821;SDS011;64096;52.548;13.406;2023-10-13T08:21:14;6.60;;;4.68;;
71821;SDS011;64096;52.548;13.406;2023-10-13T08:23:48;7.78;;;4.55;;
71821;SDS011;64096;52.548;13.406;2023-10-13T08:26:24;9.85;;;5.38;;
71821;SDS011;64096;52.548;13.406;2023-10-13T08:29:09;6.80;;;5.22;;
71821;SDS011;64096;52.548;13.406;2023-10-13T08:31:41;5.82;;;4.18;;
71821;SDS011;64096;52.548;13.406;2023-10-13T08:34:07;5.47;;;4.07;;
71821;SDS011;64096;52.548;13.406;2023-10-13T08:36:40;7.07;;;4.90;;
71821;SDS011;64096;52.548;13.406;2023-10-13T08:39:06;6.68;;;4.70;;
71821;SDS011;64096;52.548;13.406;2023-10-13T08:42:07;7.03;;;4.63;;
71821;SDS011;64096;52.548;13.406;2023-10-13T08:44:39;6.70;;;4.55;;
71821;SDS011;64096;52.548;13.406;2023-10-13T08:47:08;5.55;;;4.38;;
71821;SDS011;64096;52.548;13.406;2023-10-13T08:49:42;5.25;;;3.75;;
71821;SDS011;64096;52.548;13.406;2023-10-13T08:55:00;7.28;;;4.60;;
71821;SDS011;64096;52.548;13.406;2023-10-13T08:57:38;10.18;;;8.45;;
71821;SDS011;64096;52.548;13.406;2023-10-13T09:00:06;6.68;;;5.28;;
71821;SDS011;64096;52.548;13.406;2023-10-13T09:02:53;7.68;;;4.20;;
71821;SDS011;64096;52.548;13.406;2023-10-13T09:05:46;6.18;;;4.50;;
71821;SDS011;64096;52.548;13.406;2023-10-13T09:08:28;5.50;;;4.20;;
71821;SDS011;64096;52.548;13.406;2023-10-13T09:11:01;6.47;;;4.53;;
71821;SDS011;64096;52.548;13.406;2023-10-13T09:13:37;6.78;;;4.47;;
71821;SDS011;64096;52.548;13.406;2023-10-13T09:16:09;7.78;;;4.10;;
71821;SDS011;64096;52.548;13.406;2023-10-13T09:18:41;5.65;;;3.88;;
71821;SDS011;64096;52.548;13.406;2023-10-13T09:21:18;7.40;;;4.50;;
71821;SDS011;64096;52.548;13.406;2023-10-13T09:24:03;6.65;;;4.82;;
71821;SDS011;64096;52.548;13.406;2023-10-13T09:26:52;10.85;;;8.05;;
71821;SDS011;64096;52.548;13.406;2023-10-13T09:29:21;8.38;;;5.10;;
71821;SDS011;64096;52.548;13.406;2023-10-13T09:31:48;6.13;;;4.45;;
71821;SDS011;64096;52.548;13.406;2023-10-13T09:34:24;4.80;;;3.45;;
71821;SDS011;64096;52.548;13.406;2023-10-13T09:36:56;6.40;;;4.18;;
71821;SDS011;64096;52.548;13.406;2023-10-13T09:39:25;8.15;;;4.72;;
71821;SDS011;64096;52.548;13.406;2023-10-13T09:41:59;9.50;;;7.53;;
71821;SDS011;64096;52.548;13.406;2023-10-13T09:44:28;8.13;;;5.80;;
71821;SDS011;64096;52.548;13.406;2023-10-13T09:47:00;8.35;;;4.50;;
71821;SDS011;64096;52.548;13.406;2023-10-13T09:49:33;6.30;;;4.00;;
71821;SDS011;64096;52.548;13.406;2023-10-13T09:52:17;6.97;;;4.43;;
71821;SDS011;64096;52.548;13.406;2023-10-13T09:54:56;6.18;;;4.60;;
71821;SDS011;64096;52.548;13.406;2023-10-13T09:57:29;6.25;;;4.43;;
71821;SDS011;64096;52.548;13.406;2023-10-13T10:00:09;6.20;;;4.50;;
71821;SDS011;64096;52.548;13.406;2023-10-13T10:02:54;8.60;;;5.05;;
71821;SDS011;64096;52.548;13.406;2023-10-13T10:05:29;5.28;;;4.20;;
71821;SDS011;64096;52.548;13.406;2023-10-13T10:07:59;5.75;;;4.40;;
71821;SDS011;64096;52.548;13.406;2023-10-13T10:10:29;8.07;;;5.65;;
71821;SDS011;64096;52.548;13.406;2023-10-13T10:13:06;6.30;;;4.40;;
71821;SDS011;64096;52.548;13.406;2023-10-13T10:15:38;5.97;;;4.38;;
71821;SDS011;64096;52.548;13.406;2023-10-13T10:18:19;7.43;;;4.30;;
71821;SDS011;64096;52.548;13.406;2023-10-13T10:20:47;6.43;;;3.95;;
71821;SDS011;64096;52.548;13.406;2023-10-13T10:23:24;6.07;;;4.35;;
71821;SDS011;64096;52.548;13.406;2023-10-13T10:25:51;5.20;;;4.40;;
71821;SDS011;64096;52.548;13.406;2023-10-13T10:28:20;6.22;;;4.20;;
71821;SDS011;64096;52.548;13.406;2023-10-13T10:30:46;5.75;;;4.47;;
71821;SDS011;64096;52.548;13.406;2023-10-13T10:33:12;7.22;;;4.93;;
71821;SDS011;64096;52.548;13.406;2023-10-13T10:35:44;9.85;;;6.80;;
71821;SDS011;64096;52.548;13.406;2023-10-13T10:38:10;5.80;;;4.43;;
71821;SDS011;64096;52.548;13.406;2023-10-13T10:40:53;6.65;;;4.47;;
71821;SDS011;64096;52.548;13.406;2023-10-13T10:43:28;6.63;;;5.50;;
71821;SDS011;64096;52.548;13.406;2023-10-13T10:46:06;6.68;;;4.88;;
71821;SDS011;64096;52.548;13.406;2023-10-13T10:48:32;7.97;;;4.53;;
71821;SDS011;64096;52.548;13.406;2023-10-13T10:51:00;7.43;;;4.68;;
71821;SDS011;64096;52.548;13.406;2023-10-13T10:53:38;8.00;;;5.85;;
71821;SDS011;64096;52.548;13.406;2023-10-13T10:56:15;8.27;;;5.05;;
71821;SDS011;64096;52.548;13.406;2023-10-13T10:58:48;5.93;;;3.97;;
71821;SDS011;64096;52.548;13.406;2023-10-13T11:01:20;5.93;;;4.22;;
71821;SDS011;64096;52.548;13.406;2023-10-13T11:03:53;6.47;;;4.28;;
71821;SDS011;64096;52.548;13.406;2023-10-13T11:06:22;6.45;;;3.90;;
71821;SDS011;64096;52.548;13.406;2023-10-13T11:08:49;7.45;;;4.28;;
71821;SDS011;64096;52.548;13.406;2023-10-13T11:11:51;6.05;;;4.00;;
71821;SDS011;64096;52.548;13.406;2023-10-13T11:14:19;6.97;;;4.70;;
71821;SDS011;64096;52.548;13.406;2023-10-13T11:16:48;6.30;;;3.70;;
71821;SDS011;64096;52.548;13.406;2023-10-13T11:19:37;6.40;;;4.35;;
71821;SDS011;64096;52.548;13.406;2023-10-13T11:22:13;8.88;;;4.28;;
71821;SDS011;64096;52.548;13.406;2023-10-13T11:24:58;5.40;;;4.00;;
71821;SDS011;64096;52.548;13.406;2023-10-13T11:27:28;7.22;;;4.35;;
71821;SDS011;64096;52.548;13.406;2023-10-13T11:30:10;6.65;;;3.80;;
71821;SDS011;64096;52.548;13.406;2023-10-13T11:32:40;5.88;;;3.92;;
71821;SDS011;64096;52.548;13.406;2023-10-13T11:35:07;5.82;;;4.07;;
71821;SDS011;64096;52.548;13.406;2023-10-13T11:37:46;6.85;;;4.65;;
71821;SDS011;64096;52.548;13.406;2023-10-13T11:40:21;6.53;;;4.65;;
71821;SDS011;64096;52.548;13.406;2023-10-13T11:43:07;6.75;;;4.03;;
71821;SDS011;64096;52.548;13.406;2023-10-13T11:45:47;5.55;;;4.38;;
71821;SDS011;64096;52.548;13.406;2023-10-13T11:48:22;5.78;;;4.30;;
71821;SDS011;64096;52.548;13.406;2023-10-13T11:50:59;7.68;;;4.80;;
71821;SDS011;64096;52.548;13.406;2023-10-13T11:53:25;5.30;;;3.67;;
71821;SDS011;64096;52.548;13.406;2023-10-13T11:55:54;5.50;;;3.95;;
71821;SDS011;64096;52.548;13.406;2023-10-13T11:58:20;6.45;;;3.95;;
71821;SDS011;64096;52.548;13.406;2023-10-13T12:00:46;6.32;;;3.95;;
71821;SDS011;64096;52.548;13.406;2023-10-13T12:03:18;7.93;;;4.45;;
71821;SDS011;64096;52.548;13.406;2023-10-13T12:06:03;6.82;;;4.50;;
71821;SDS011;64096;52.548;13.406;2023-10-13T12:09:05;6.53;;;4.07;;
71821;SDS011;64096;52.548;13.406;2023-10-13T12:11:46;7.20;;;4.63;;
71821;SDS011;64096;52.548;13.406;2023-10-13T12:14:14;5.80;;;3.85;;
71821;SDS011;64096;52.548;13.406;2023-10-13T12:16:52;5.60;;;4.18;;
71821;SDS011;64096;52.548;13.406;2023-10-13T12:19:22;5.97;;;4.03;;
71821;SDS011;64096;52.548;13.406;2023-10-13T12:21:55;6.50;;;3.88;;
71821;SDS011;64096;52.548;13.406;2023-10-13T12:24:24;5.95;;;3.60;;
71821;SDS011;64096;52.548;13.406;2023-10-13T12:27:17;7.40;;;4.13;;
71821;SDS011;64096;52.548;13.406;2023-10-13T12:29:48;7.00;;;4.10;;
71821;SDS011;64096;52.548;13.406;2023-10-13T12:32:17;6.18;;;4.10;;
71821;SDS011;64096;52.548;13.406;2023-10-13T12:34:47;5.82;;;3.60;;
71821;SDS011;64096;52.548;13.406;2023-10-13T12:37:29;6.65;;;4.00;;
71821;SDS011;64096;52.548;13.406;2023-10-13T12:40:14;5.28;;;3.88;;
71821;SDS011;64096;52.548;13.406;2023-10-13T12:42:59;6.80;;;4.10;;
71821;SDS011;64096;52.548;13.406;2023-10-13T12:45:44;6.82;;;4.30;;
71821;SDS011;64096;52.548;13.406;2023-10-13T12:48:30;5.93;;;3.83;;
71821;SDS011;64096;52.548;13.406;2023-10-13T12:51:15;7.05;;;4.50;;
71821;SDS011;64096;52.548;13.406;2023-10-13T12:53:54;7.45;;;4.05;;
71821;SDS011;64096;52.548;13.406;2023-10-13T12:56:20;6.18;;;3.38;;
71821;SDS011;64096;52.548;13.406;2023-10-13T12:58:53;5.18;;;3.55;;
71821;SDS011;64096;52.548;13.406;2023-10-13T13:01:23;8.23;;;4.18;;
71821;SDS011;64096;52.548;13.406;2023-10-13T13:03:50;7.32;;;3.85;;
71821;SDS011;64096;52.548;13.406;2023-10-13T13:06:21;6.55;;;3.53;;
71821;SDS011;64096;52.548;13.406;2023-10-13T13:08:53;9.13;;;4.13;;
71821;SDS011;64096;52.548;13.406;2023-10-13T13:11:19;7.57;;;3.88;;
71821;SDS011;64096;52.548;13.406;2023-10-13T13:13:46;7.63;;;4.30;;
71821;SDS011;64096;52.548;13.406;2023-10-13T13:16:15;6.50;;;3.60;;
71821;SDS011;64096;52.548;13.406;2023-10-13T13:18:52;7.00;;;4.10;;
71821;SDS011;64096;52.548;13.406;2023-10-13T13:21:22;6.90;;;4.10;;
71821;SDS011;64096;52.548;13.406;2023-10-13T13:23:52;8.00;;;4.13;;
71821;SDS011;64096;52.548;13.406;2023-10-13T13:26:21;6.68;;;4.07;;
71821;SDS011;64096;52.548;13.406;2023-10-13T13:28:51;6.15;;;3.88;;
71821;SDS011;64096;52.548;13.406;2023-10-13T13:31:20;7.63;;;4.07;;
71821;SDS011;64096;52.548;13.406;2023-10-13T13:33:51;6.43;;;4.15;;
71821;SDS011;64096;52.548;13.406;2023-10-13T13:36:17;9.50;;;4.70;;
71821;SDS011;64096;52.548;13.406;2023-10-13T13:38:44;9.80;;;4.07;;
71821;SDS011;64096;52.548;13.406;2023-10-13T13:41:19;6.47;;;3.67;;
71821;SDS011;64096;52.548;13.406;2023-10-13T13:43:47;8.95;;;3.70;;
71821;SDS011;64096;52.548;13.406;2023-10-13T13:46:36;6.85;;;4.13;;
71821;SDS011;64096;52.548;13.406;2023-10-13T13:49:06;7.20;;;4.57;;
71821;SDS011;64096;52.548;13.406;2023-10-13T13:51:42;7.20;;;3.95;;
71821;SDS011;64096;52.548;13.406;2023-10-13T13:54:08;7.68;;;4.30;;
71821;SDS011;64096;52.548;13.406;2023-10-13T13:56:34;7.75;;;4.40;;
71821;SDS011;64096;52.548;13.406;2023-10-13T13:59:03;9.98;;;4.22;;
